Terminal Aerodrome Forecast
Issued by NWS

Home | Current Version | Previous Version | Graphics & Text | Print | Product List | Glossary On
Versions: 1 2 3 4 5 6 7 8 9 10 11 12 13 14 15 16 17 18
000
FTUS43 KABR 201720
TAFATY
TAF
KATY 201720Z 2018/2118 18020G28KT P6SM SCT200
     FM210300 18019G27KT P6SM BKN100
     FM211200 19014G21KT P6SM BKN030
     FM211400 25013KT P6SM BKN035=

USA.gov is the U.S. government's official web portal to all federal, state and local government web resources and services.